sensor_id;sensor_type;location;lat;lon;timestamp;temperature;humidity
20125;DHT22;10223;50.862;4.360;2022-07-29T00:00:14;20.40;99.90
20125;DHT22;10223;50.862;4.360;2022-07-29T00:02:41;20.40;99.90
20125;DHT22;10223;50.862;4.360;2022-07-29T00:05:08;20.50;99.90
20125;DHT22;10223;50.862;4.360;2022-07-29T00:07:40;20.80;99.90
20125;DHT22;10223;50.862;4.360;2022-07-29T00:10:08;20.80;99.90
20125;DHT22;10223;50.862;4.360;2022-07-29T00:12:35;21.10;99.90
20125;DHT22;10223;50.862;4.360;2022-07-29T00:15:02;20.70;99.90
20125;DHT22;10223;50.862;4.360;2022-07-29T00:17:29;20.50;99.90
20125;DHT22;10223;50.862;4.360;2022-07-29T00:19:56;20.80;99.90
20125;DHT22;10223;50.862;4.360;2022-07-29T00:22:23;20.60;99.90
20125;DHT22;10223;50.862;4.360;2022-07-29T00:24:51;20.70;99.90
20125;DHT22;10223;50.862;4.360;2022-07-29T00:27:18;20.80;99.90
20125;DHT22;10223;50.862;4.360;2022-07-29T00:29:45;20.90;99.90
20125;DHT22;10223;50.862;4.360;2022-07-29T00:32:12;21.00;99.90
20125;DHT22;10223;50.862;4.360;2022-07-29T00:34:39;21.00;99.90
20125;DHT22;10223;50.862;4.360;2022-07-29T00:37:24;20.90;99.90
20125;DHT22;10223;50.862;4.360;2022-07-29T00:39:52;20.90;99.90
20125;DHT22;10223;50.862;4.360;2022-07-29T00:42:19;21.10;99.90
20125;DHT22;10223;50.862;4.360;2022-07-29T00:44:46;21.20;99.90
20125;DHT22;10223;50.862;4.360;2022-07-29T00:47:13;21.50;99.90
20125;DHT22;10223;50.862;4.360;2022-07-29T00:49:41;21.40;99.90
20125;DHT22;10223;50.862;4.360;2022-07-29T00:52:09;21.40;99.90
20125;DHT22;10223;50.862;4.360;2022-07-29T00:54:38;21.40;99.90
20125;DHT22;10223;50.862;4.360;2022-07-29T00:57:07;21.60;99.90
20125;DHT22;10223;50.862;4.360;2022-07-29T00:59:34;21.50;99.90
20125;DHT22;10223;50.862;4.360;2022-07-29T01:02:01;21.30;99.90
20125;DHT22;10223;50.862;4.360;2022-07-29T01:04:28;21.30;99.90
20125;DHT22;10223;50.862;4.360;2022-07-29T01:06:56;21.30;99.90
20125;DHT22;10223;50.862;4.360;2022-07-29T01:09:23;21.30;99.90
20125;DHT22;10223;50.862;4.360;2022-07-29T01:11:50;21.20;99.90
20125;DHT22;10223;50.862;4.360;2022-07-29T01:14:21;21.20;99.90
20125;DHT22;10223;50.862;4.360;2022-07-29T01:16:51;21.10;99.90
20125;DHT22;10223;50.862;4.360;2022-07-29T01:19:33;20.90;99.90
20125;DHT22;10223;50.862;4.360;2022-07-29T01:22:22;20.90;99.90
20125;DHT22;10223;50.862;4.360;2022-07-29T01:25:05;21.00;99.90
20125;DHT22;10223;50.862;4.360;2022-07-29T01:27:49;21.10;99.90
20125;DHT22;10223;50.862;4.360;2022-07-29T01:30:20;20.90;99.90
20125;DHT22;10223;50.862;4.360;2022-07-29T01:32:50;20.70;99.90
20125;DHT22;10223;50.862;4.360;2022-07-29T01:35:21;20.80;99.90
20125;DHT22;10223;50.862;4.360;2022-07-29T01:37:52;20.50;99.90
20125;DHT22;10223;50.862;4.360;2022-07-29T01:40:25;20.30;99.90
20125;DHT22;10223;50.862;4.360;2022-07-29T01:42:56;20.00;99.90
20125;DHT22;10223;50.862;4.360;2022-07-29T01:45:28;20.00;99.90
20125;DHT22;10223;50.862;4.360;2022-07-29T01:48:02;20.00;99.90
20125;DHT22;10223;50.862;4.360;2022-07-29T01:50:34;19.90;99.90
20125;DHT22;10223;50.862;4.360;2022-07-29T01:53:04;19.70;99.90
20125;DHT22;10223;50.862;4.360;2022-07-29T01:55:36;19.90;99.90
20125;DHT22;10223;50.862;4.360;2022-07-29T01:58:05;20.00;99.90
20125;DHT22;10223;50.862;4.360;2022-07-29T02:00:34;20.00;99.90
20125;DHT22;10223;50.862;4.360;2022-07-29T02:03:05;19.70;99.90
20125;DHT22;10223;50.862;4.360;2022-07-29T02:05:34;19.40;99.90
20125;DHT22;10223;50.862;4.360;2022-07-29T02:08:03;19.30;99.90
20125;DHT22;10223;50.862;4.360;2022-07-29T02:10:33;19.30;99.90
20125;DHT22;10223;50.862;4.360;2022-07-29T02:13:03;19.00;99.90
20125;DHT22;10223;50.862;4.360;2022-07-29T02:15:33;19.00;99.90
20125;DHT22;10223;50.862;4.360;2022-07-29T02:18:05;19.00;99.90
20125;DHT22;10223;50.862;4.360;2022-07-29T02:20:33;19.00;99.90
20125;DHT22;10223;50.862;4.360;2022-07-29T02:23:01;19.20;99.90
20125;DHT22;10223;50.862;4.360;2022-07-29T02:25:29;19.10;99.90
20125;DHT22;10223;50.862;4.360;2022-07-29T02:27:57;19.30;99.90
20125;DHT22;10223;50.862;4.360;2022-07-29T02:30:26;19.30;99.90
20125;DHT22;10223;50.862;4.360;2022-07-29T02:32:56;19.20;99.90
20125;DHT22;10223;50.862;4.360;2022-07-29T02:35:24;19.10;99.90
20125;DHT22;10223;50.862;4.360;2022-07-29T02:37:52;19.30;99.90
20125;DHT22;10223;50.862;4.360;2022-07-29T02:40:35;19.50;99.90
20125;DHT22;10223;50.862;4.360;2022-07-29T02:43:05;19.40;99.90
20125;DHT22;10223;50.862;4.360;2022-07-29T02:45:33;19.20;99.90
20125;DHT22;10223;50.862;4.360;2022-07-29T02:48:06;19.10;99.90
20125;DHT22;10223;50.862;4.360;2022-07-29T02:50:39;19.40;99.90
20125;DHT22;10223;50.862;4.360;2022-07-29T02:53:14;19.20;99.90
20125;DHT22;10223;50.862;4.360;2022-07-29T02:55:45;19.20;99.90
20125;DHT22;10223;50.862;4.360;2022-07-29T02:58:15;19.10;99.90
20125;DHT22;10223;50.862;4.360;2022-07-29T03:00:44;19.00;99.90
20125;DHT22;10223;50.862;4.360;2022-07-29T03:03:16;18.90;99.90
20125;DHT22;10223;50.862;4.360;2022-07-29T03:05:43;18.90;99.90
20125;DHT22;10223;50.862;4.360;2022-07-29T03:08:11;18.80;99.90
20125;DHT22;10223;50.862;4.360;2022-07-29T03:10:42;18.70;99.90
20125;DHT22;10223;50.862;4.360;2022-07-29T03:13:10;18.80;99.90
20125;DHT22;10223;50.862;4.360;2022-07-29T03:15:38;18.90;99.90
20125;DHT22;10223;50.862;4.360;2022-07-29T03:18:06;18.90;99.90
20125;DHT22;10223;50.862;4.360;2022-07-29T03:20:35;18.90;99.90
20125;DHT22;10223;50.862;4.360;2022-07-29T03:23:02;19.00;99.90
20125;DHT22;10223;50.862;4.360;2022-07-29T03:25:30;19.10;99.90
20125;DHT22;10223;50.862;4.360;2022-07-29T03:27:57;18.90;99.90
20125;DHT22;10223;50.862;4.360;2022-07-29T03:30:24;19.00;99.90
20125;DHT22;10223;50.862;4.360;2022-07-29T03:32:51;18.80;99.90
20125;DHT22;10223;50.862;4.360;2022-07-29T03:35:18;18.80;99.90
20125;DHT22;10223;50.862;4.360;2022-07-29T03:37:47;18.90;99.90
20125;DHT22;10223;50.862;4.360;2022-07-29T03:40:24;18.90;99.90
20125;DHT22;10223;50.862;4.360;2022-07-29T03:42:53;18.80;99.90
20125;DHT22;10223;50.862;4.360;2022-07-29T03:45:21;18.80;99.90
20125;DHT22;10223;50.862;4.360;2022-07-29T03:47:53;18.90;99.90
20125;DHT22;10223;50.862;4.360;2022-07-29T03:50:22;19.20;99.90
20125;DHT22;10223;50.862;4.360;2022-07-29T03:52:50;19.20;99.90
20125;DHT22;10223;50.862;4.360;2022-07-29T03:55:17;19.20;99.90
20125;DHT22;10223;50.862;4.360;2022-07-29T03:57:45;19.40;99.90
20125;DHT22;10223;50.862;4.360;2022-07-29T04:00:13;19.20;99.90
20125;DHT22;10223;50.862;4.360;2022-07-29T04:02:43;19.20;99.90
20125;DHT22;10223;50.862;4.360;2022-07-29T04:05:14;19.60;99.90
20125;DHT22;10223;50.862;4.360;2022-07-29T04:07:43;19.40;99.90
20125;DHT22;10223;50.862;4.360;2022-07-29T04:10:12;19.30;99.90
20125;DHT22;10223;50.862;4.360;2022-07-29T04:12:39;19.10;99.90
20125;DHT22;10223;50.862;4.360;2022-07-29T04:15:06;19.10;99.90
20125;DHT22;10223;50.862;4.360;2022-07-29T04:17:33;19.00;99.90
20125;DHT22;10223;50.862;4.360;2022-07-29T04:20:00;19.10;99.90
20125;DHT22;10223;50.862;4.360;2022-07-29T04:22:27;19.00;99.90
20125;DHT22;10223;50.862;4.360;2022-07-29T04:24:54;18.70;99.90
20125;DHT22;10223;50.862;4.360;2022-07-29T04:27:22;18.70;99.90
20125;DHT22;10223;50.862;4.360;2022-07-29T04:29:49;19.00;99.90
20125;DHT22;10223;50.862;4.360;2022-07-29T04:32:16;19.00;99.90
20125;DHT22;10223;50.862;4.360;2022-07-29T04:34:43;18.90;99.90
20125;DHT22;10223;50.862;4.360;2022-07-29T04:37:12;18.90;99.90
20125;DHT22;10223;50.862;4.360;2022-07-29T04:39:39;18.80;99.90
20125;DHT22;10223;50.862;4.360;2022-07-29T04:42:06;18.80;99.90
20125;DHT22;10223;50.862;4.360;2022-07-29T04:44:34;18.90;99.90
20125;DHT22;10223;50.862;4.360;2022-07-29T04:47:01;18.80;99.90
20125;DHT22;10223;50.862;4.360;2022-07-29T04:49:28;18.60;99.90
20125;DHT22;10223;50.862;4.360;2022-07-29T04:51:55;18.60;99.90
20125;DHT22;10223;50.862;4.360;2022-07-29T04:54:22;18.50;99.90
20125;DHT22;10223;50.862;4.360;2022-07-29T04:56:48;18.50;99.90
20125;DHT22;10223;50.862;4.360;2022-07-29T04:59:15;18.80;99.90
20125;DHT22;10223;50.862;4.360;2022-07-29T05:01:44;18.90;99.90
20125;DHT22;10223;50.862;4.360;2022-07-29T05:04:10;18.80;99.90
20125;DHT22;10223;50.862;4.360;2022-07-29T05:06:37;18.70;99.90
20125;DHT22;10223;50.862;4.360;2022-07-29T05:09:04;18.60;99.90
20125;DHT22;10223;50.862;4.360;2022-07-29T05:11:31;18.50;99.90
20125;DHT22;10223;50.862;4.360;2022-07-29T05:13:58;18.50;99.90
20125;DHT22;10223;50.862;4.360;2022-07-29T05:16:25;18.60;99.90
20125;DHT22;10223;50.862;4.360;2022-07-29T05:18:53;18.90;99.90
20125;DHT22;10223;50.862;4.360;2022-07-29T05:21:20;18.80;99.90
20125;DHT22;10223;50.862;4.360;2022-07-29T05:23:47;18.60;99.90
20125;DHT22;10223;50.862;4.360;2022-07-29T05:26:14;18.70;99.90
20125;DHT22;10223;50.862;4.360;2022-07-29T05:28:40;18.60;99.90
20125;DHT22;10223;50.862;4.360;2022-07-29T05:31:07;18.60;99.90
20125;DHT22;10223;50.862;4.360;2022-07-29T05:33:35;18.60;99.90
20125;DHT22;10223;50.862;4.360;2022-07-29T05:36:03;19.10;99.90
20125;DHT22;10223;50.862;4.360;2022-07-29T05:38:32;18.90;99.90
20125;DHT22;10223;50.862;4.360;2022-07-29T05:40:59;18.90;99.90
20125;DHT22;10223;50.862;4.360;2022-07-29T05:43:26;19.30;99.90
20125;DHT22;10223;50.862;4.360;2022-07-29T05:45:53;19.50;99.90
20125;DHT22;10223;50.862;4.360;2022-07-29T05:48:20;19.80;99.90
20125;DHT22;10223;50.862;4.360;2022-07-29T05:50:47;19.70;99.90
20125;DHT22;10223;50.862;4.360;2022-07-29T05:53:15;19.80;99.90
20125;DHT22;10223;50.862;4.360;2022-07-29T05:55:42;19.80;99.90
20125;DHT22;10223;50.862;4.360;2022-07-29T05:58:09;19.60;99.90
20125;DHT22;10223;50.862;4.360;2022-07-29T06:00:36;19.50;99.90
20125;DHT22;10223;50.862;4.360;2022-07-29T06:03:03;19.70;99.90
20125;DHT22;10223;50.862;4.360;2022-07-29T06:05:30;19.70;99.90
20125;DHT22;10223;50.862;4.360;2022-07-29T06:07:57;19.50;99.90
20125;DHT22;10223;50.862;4.360;2022-07-29T06:10:25;19.80;99.90
20125;DHT22;10223;50.862;4.360;2022-07-29T06:12:52;19.90;99.90
20125;DHT22;10223;50.862;4.360;2022-07-29T06:15:19;19.90;99.90
20125;DHT22;10223;50.862;4.360;2022-07-29T06:17:46;20.10;99.90
20125;DHT22;10223;50.862;4.360;2022-07-29T06:20:13;20.00;99.90
20125;DHT22;10223;50.862;4.360;2022-07-29T06:22:40;20.20;99.90
20125;DHT22;10223;50.862;4.360;2022-07-29T06:25:07;20.30;99.90
20125;DHT22;10223;50.862;4.360;2022-07-29T06:27:36;20.30;99.90
20125;DHT22;10223;50.862;4.360;2022-07-29T06:30:03;20.30;99.90
20125;DHT22;10223;50.862;4.360;2022-07-29T06:32:32;20.30;99.90
20125;DHT22;10223;50.862;4.360;2022-07-29T06:34:59;20.30;99.90
20125;DHT22;10223;50.862;4.360;2022-07-29T06:37:26;20.30;99.90
20125;DHT22;10223;50.862;4.360;2022-07-29T06:39:52;20.20;99.90
20125;DHT22;10223;50.862;4.360;2022-07-29T06:42:45;20.30;99.90
20125;DHT22;10223;50.862;4.360;2022-07-29T06:45:12;19.90;99.90
20125;DHT22;10223;50.862;4.360;2022-07-29T06:47:38;20.10;99.90
20125;DHT22;10223;50.862;4.360;2022-07-29T06:50:06;20.20;99.90
20125;DHT22;10223;50.862;4.360;2022-07-29T06:52:37;19.90;99.90
20125;DHT22;10223;50.862;4.360;2022-07-29T06:55:05;19.80;99.90
20125;DHT22;10223;50.862;4.360;2022-07-29T06:57:32;19.80;99.90
20125;DHT22;10223;50.862;4.360;2022-07-29T07:00:00;20.00;99.90
20125;DHT22;10223;50.862;4.360;2022-07-29T07:02:29;20.20;99.90
20125;DHT22;10223;50.862;4.360;2022-07-29T07:04:56;20.20;99.90
20125;DHT22;10223;50.862;4.360;2022-07-29T07:07:24;20.30;99.90
20125;DHT22;10223;50.862;4.360;2022-07-29T07:09:51;20.60;99.90
20125;DHT22;10223;50.862;4.360;2022-07-29T07:12:17;20.40;99.90
20125;DHT22;10223;50.862;4.360;2022-07-29T07:14:44;20.50;99.90
20125;DHT22;10223;50.862;4.360;2022-07-29T07:17:13;20.50;99.90
20125;DHT22;10223;50.862;4.360;2022-07-29T07:19:40;20.70;99.90
20125;DHT22;10223;50.862;4.360;2022-07-29T07:22:06;20.80;99.90
20125;DHT22;10223;50.862;4.360;2022-07-29T07:24:33;21.20;99.90
20125;DHT22;10223;50.862;4.360;2022-07-29T07:27:00;21.10;99.90
20125;DHT22;10223;50.862;4.360;2022-07-29T07:29:27;20.80;99.90
20125;DHT22;10223;50.862;4.360;2022-07-29T07:31:54;20.90;99.90
20125;DHT22;10223;50.862;4.360;2022-07-29T07:34:23;21.00;99.90
20125;DHT22;10223;50.862;4.360;2022-07-29T07:36:49;21.00;99.90
20125;DHT22;10223;50.862;4.360;2022-07-29T07:39:16;21.10;99.90
20125;DHT22;10223;50.862;4.360;2022-07-29T07:41:43;21.20;99.90
20125;DHT22;10223;50.862;4.360;2022-07-29T07:44:10;21.40;99.90
20125;DHT22;10223;50.862;4.360;2022-07-29T07:46:37;21.80;99.90
20125;DHT22;10223;50.862;4.360;2022-07-29T07:49:04;22.10;99.90
20125;DHT22;10223;50.862;4.360;2022-07-29T07:51:32;22.40;99.90
20125;DHT22;10223;50.862;4.360;2022-07-29T07:54:00;22.60;99.90
20125;DHT22;10223;50.862;4.360;2022-07-29T07:56:27;22.90;99.90
20125;DHT22;10223;50.862;4.360;2022-07-29T07:58:54;22.80;99.90
20125;DHT22;10223;50.862;4.360;2022-07-29T08:01:21;22.80;99.90
20125;DHT22;10223;50.862;4.360;2022-07-29T08:03:48;23.30;99.90
20125;DHT22;10223;50.862;4.360;2022-07-29T08:06:15;23.90;99.90
20125;DHT22;10223;50.862;4.360;2022-07-29T08:08:44;24.10;99.90
20125;DHT22;10223;50.862;4.360;2022-07-29T08:11:10;24.40;99.90
20125;DHT22;10223;50.862;4.360;2022-07-29T08:13:38;24.50;99.90
20125;DHT22;10223;50.862;4.360;2022-07-29T08:16:06;24.20;99.90
20125;DHT22;10223;50.862;4.360;2022-07-29T08:18:42;24.40;99.90
20125;DHT22;10223;50.862;4.360;2022-07-29T08:21:09;25.00;99.90
20125;DHT22;10223;50.862;4.360;2022-07-29T08:23:36;25.50;99.90
20125;DHT22;10223;50.862;4.360;2022-07-29T08:26:06;25.60;99.90
20125;DHT22;10223;50.862;4.360;2022-07-29T08:28:36;25.40;99.90
20125;DHT22;10223;50.862;4.360;2022-07-29T08:31:03;25.00;99.90
20125;DHT22;10223;50.862;4.360;2022-07-29T08:33:30;24.20;99.90
20125;DHT22;10223;50.862;4.360;2022-07-29T08:35:57;24.10;99.90
20125;DHT22;10223;50.862;4.360;2022-07-29T08:38:23;24.20;99.90
20125;DHT22;10223;50.862;4.360;2022-07-29T08:40:51;25.00;99.90
20125;DHT22;10223;50.862;4.360;2022-07-29T08:43:20;25.20;99.90
20125;DHT22;10223;50.862;4.360;2022-07-29T08:45:48;25.70;99.90
20125;DHT22;10223;50.862;4.360;2022-07-29T08:48:19;26.40;99.90
20125;DHT22;10223;50.862;4.360;2022-07-29T08:50:48;26.30;99.90
20125;DHT22;10223;50.862;4.360;2022-07-29T08:53:17;25.90;99.90
20125;DHT22;10223;50.862;4.360;2022-07-29T08:55:45;26.00;99.90
20125;DHT22;10223;50.862;4.360;2022-07-29T08:58:13;26.50;99.90
20125;DHT22;10223;50.862;4.360;2022-07-29T09:00:45;26.80;99.90
20125;DHT22;10223;50.862;4.360;2022-07-29T09:03:20;26.70;99.90
20125;DHT22;10223;50.862;4.360;2022-07-29T09:05:49;26.00;99.90
20125;DHT22;10223;50.862;4.360;2022-07-29T09:08:17;26.20;99.90
20125;DHT22;10223;50.862;4.360;2022-07-29T09:10:47;26.30;99.90
20125;DHT22;10223;50.862;4.360;2022-07-29T09:13:14;26.60;99.90
20125;DHT22;10223;50.862;4.360;2022-07-29T09:15:43;26.90;99.90
20125;DHT22;10223;50.862;4.360;2022-07-29T09:18:10;27.30;99.90
20125;DHT22;10223;50.862;4.360;2022-07-29T09:20:37;27.20;99.90
20125;DHT22;10223;50.862;4.360;2022-07-29T09:23:22;26.90;99.90
20125;DHT22;10223;50.862;4.360;2022-07-29T09:25:49;27.20;99.90
20125;DHT22;10223;50.862;4.360;2022-07-29T09:28:17;26.70;99.90
20125;DHT22;10223;50.862;4.360;2022-07-29T09:30:52;26.70;99.90
20125;DHT22;10223;50.862;4.360;2022-07-29T09:33:20;26.70;99.90
20125;DHT22;10223;50.862;4.360;2022-07-29T09:35:58;26.40;99.90
20125;DHT22;10223;50.862;4.360;2022-07-29T09:38:25;26.70;99.90
20125;DHT22;10223;50.862;4.360;2022-07-29T09:40:56;26.80;99.90
20125;DHT22;10223;50.862;4.360;2022-07-29T09:43:23;27.20;99.90
20125;DHT22;10223;50.862;4.360;2022-07-29T09:45:52;27.50;99.90
20125;DHT22;10223;50.862;4.360;2022-07-29T09:48:21;27.60;99.90
20125;DHT22;10223;50.862;4.360;2022-07-29T09:50:49;27.40;99.90
20125;DHT22;10223;50.862;4.360;2022-07-29T09:53:30;27.10;99.90
20125;DHT22;10223;50.862;4.360;2022-07-29T09:55:57;27.20;99.90
20125;DHT22;10223;50.862;4.360;2022-07-29T09:58:25;26.40;99.90
20125;DHT22;10223;50.862;4.360;2022-07-29T10:00:54;26.80;99.90
20125;DHT22;10223;50.862;4.360;2022-07-29T10:03:22;27.40;99.90
20125;DHT22;10223;50.862;4.360;2022-07-29T10:06:04;27.70;99.90
20125;DHT22;10223;50.862;4.360;2022-07-29T10:08:32;28.00;99.90
20125;DHT22;10223;50.862;4.360;2022-07-29T10:11:09;27.40;99.90
20125;DHT22;10223;50.862;4.360;2022-07-29T10:13:36;27.90;99.90
20125;DHT22;10223;50.862;4.360;2022-07-29T10:16:05;27.70;99.90
20125;DHT22;10223;50.862;4.360;2022-07-29T10:18:35;27.70;99.90
20125;DHT22;10223;50.862;4.360;2022-07-29T10:21:04;27.70;99.90
20125;DHT22;10223;50.862;4.360;2022-07-29T10:23:31;28.20;99.90
20125;DHT22;10223;50.862;4.360;2022-07-29T10:25:58;28.20;99.90
20125;DHT22;10223;50.862;4.360;2022-07-29T10:28:25;28.20;99.90
20125;DHT22;10223;50.862;4.360;2022-07-29T10:31:00;28.30;99.90
20125;DHT22;10223;50.862;4.360;2022-07-29T10:33:43;28.20;99.90
20125;DHT22;10223;50.862;4.360;2022-07-29T10:36:26;28.20;99.90
20125;DHT22;10223;50.862;4.360;2022-07-29T10:39:02;28.30;99.90
20125;DHT22;10223;50.862;4.360;2022-07-29T10:41:47;28.10;99.90
20125;DHT22;10223;50.862;4.360;2022-07-29T10:44:21;28.20;99.90
20125;DHT22;10223;50.862;4.360;2022-07-29T10:46:49;27.90;99.90
20125;DHT22;10223;50.862;4.360;2022-07-29T10:49:19;27.90;99.90
20125;DHT22;10223;50.862;4.360;2022-07-29T10:51:55;28.10;99.90
20125;DHT22;10223;50.862;4.360;2022-07-29T10:54:48;28.40;99.90
20125;DHT22;10223;50.862;4.360;2022-07-29T10:57:23;28.70;99.90
20125;DHT22;10223;50.862;4.360;2022-07-29T11:00:28;28.50;99.90
20125;DHT22;10223;50.862;4.360;2022-07-29T11:02:55;28.30;99.90
20125;DHT22;10223;50.862;4.360;2022-07-29T11:05:25;27.50;99.90
20125;DHT22;10223;50.862;4.360;2022-07-29T11:08:23;27.70;99.90
20125;DHT22;10223;50.862;4.360;2022-07-29T11:13:49;28.50;99.90
20125;DHT22;10223;50.862;4.360;2022-07-29T11:16:18;28.40;99.90
20125;DHT22;10223;50.862;4.360;2022-07-29T11:19:18;28.40;99.90
20125;DHT22;10223;50.862;4.360;2022-07-29T11:21:47;28.70;99.90
20125;DHT22;10223;50.862;4.360;2022-07-29T11:24:17;28.80;99.90
20125;DHT22;10223;50.862;4.360;2022-07-29T11:26:44;29.00;99.90
20125;DHT22;10223;50.862;4.360;2022-07-29T11:29:19;28.70;99.60
20125;DHT22;10223;50.862;4.360;2022-07-29T11:31:48;28.70;99.30
20125;DHT22;10223;50.862;4.360;2022-07-29T11:34:24;28.70;99.40
20125;DHT22;10223;50.862;4.360;2022-07-29T11:37:16;28.80;99.00
20125;DHT22;10223;50.862;4.360;2022-07-29T11:39:44;28.50;99.60
20125;DHT22;10223;50.862;4.360;2022-07-29T11:45:19;28.80;99.10
20125;DHT22;10223;50.862;4.360;2022-07-29T11:47:49;28.60;99.10
20125;DHT22;10223;50.862;4.360;2022-07-29T11:50:18;28.80;99.60
20125;DHT22;10223;50.862;4.360;2022-07-29T11:52:54;28.50;99.70
20125;DHT22;10223;50.862;4.360;2022-07-29T11:55:22;28.70;99.30
20125;DHT22;10223;50.862;4.360;2022-07-29T11:57:50;29.20;98.10
20125;DHT22;10223;50.862;4.360;2022-07-29T12:00:27;29.60;97.00
20125;DHT22;10223;50.862;4.360;2022-07-29T12:02:55;30.00;96.10
20125;DHT22;10223;50.862;4.360;2022-07-29T12:05:32;29.20;96.40
20125;DHT22;10223;50.862;4.360;2022-07-29T12:08:06;29.20;96.50
20125;DHT22;10223;50.862;4.360;2022-07-29T12:10:34;29.40;95.90
20125;DHT22;10223;50.862;4.360;2022-07-29T12:13:01;29.70;96.30
20125;DHT22;10223;50.862;4.360;2022-07-29T12:15:28;29.90;96.30
20125;DHT22;10223;50.862;4.360;2022-07-29T12:17:55;30.10;96.20
20125;DHT22;10223;50.862;4.360;2022-07-29T12:20:23;30.60;95.10
20125;DHT22;10223;50.862;4.360;2022-07-29T12:22:51;30.70;94.80
20125;DHT22;10223;50.862;4.360;2022-07-29T12:25:22;30.10;95.10
20125;DHT22;10223;50.862;4.360;2022-07-29T12:27:59;29.90;95.70
20125;DHT22;10223;50.862;4.360;2022-07-29T12:30:38;30.00;95.50
20125;DHT22;10223;50.862;4.360;2022-07-29T12:33:15;30.40;94.80
20125;DHT22;10223;50.862;4.360;2022-07-29T12:35:44;30.40;94.30
20125;DHT22;10223;50.862;4.360;2022-07-29T12:38:11;30.30;94.10
20125;DHT22;10223;50.862;4.360;2022-07-29T12:40:40;30.00;94.10
20125;DHT22;10223;50.862;4.360;2022-07-29T12:43:08;29.50;94.60
20125;DHT22;10223;50.862;4.360;2022-07-29T12:45:36;29.60;94.70
20125;DHT22;10223;50.862;4.360;2022-07-29T12:48:04;29.50;94.50
20125;DHT22;10223;50.862;4.360;2022-07-29T12:50:34;29.50;94.60
20125;DHT22;10223;50.862;4.360;2022-07-29T12:53:11;29.50;94.50
20125;DHT22;10223;50.862;4.360;2022-07-29T12:55:42;29.40;95.00
20125;DHT22;10223;50.862;4.360;2022-07-29T12:58:10;29.40;95.20
20125;DHT22;10223;50.862;4.360;2022-07-29T13:00:37;29.60;94.80
20125;DHT22;10223;50.862;4.360;2022-07-29T13:03:04;29.50;94.70
20125;DHT22;10223;50.862;4.360;2022-07-29T13:05:42;30.10;94.30
20125;DHT22;10223;50.862;4.360;2022-07-29T13:08:14;30.60;93.90
20125;DHT22;10223;50.862;4.360;2022-07-29T13:10:42;30.90;93.00
20125;DHT22;10223;50.862;4.360;2022-07-29T13:13:11;30.60;93.50
20125;DHT22;10223;50.862;4.360;2022-07-29T13:15:40;30.60;93.50
20125;DHT22;10223;50.862;4.360;2022-07-29T13:18:28;30.40;93.60
20125;DHT22;10223;50.862;4.360;2022-07-29T13:20:55;30.40;93.80
20125;DHT22;10223;50.862;4.360;2022-07-29T13:23:22;30.60;93.60
20125;DHT22;10223;50.862;4.360;2022-07-29T13:25:51;31.00;93.30
20125;DHT22;10223;50.862;4.360;2022-07-29T13:28:18;31.10;93.10
20125;DHT22;10223;50.862;4.360;2022-07-29T13:30:46;31.30;92.50
20125;DHT22;10223;50.862;4.360;2022-07-29T13:33:14;31.30;92.40
20125;DHT22;10223;50.862;4.360;2022-07-29T13:35:41;31.20;92.10
20125;DHT22;10223;50.862;4.360;2022-07-29T13:38:08;31.10;92.20
20125;DHT22;10223;50.862;4.360;2022-07-29T13:40:34;31.50;91.70
20125;DHT22;10223;50.862;4.360;2022-07-29T13:43:03;31.60;91.60
20125;DHT22;10223;50.862;4.360;2022-07-29T13:45:30;31.70;91.30
20125;DHT22;10223;50.862;4.360;2022-07-29T13:47:56;31.80;91.20
20125;DHT22;10223;50.862;4.360;2022-07-29T13:50:23;31.60;91.70
20125;DHT22;10223;50.862;4.360;2022-07-29T13:52:50;31.80;91.10
20125;DHT22;10223;50.862;4.360;2022-07-29T13:55:18;32.10;91.00
20125;DHT22;10223;50.862;4.360;2022-07-29T13:57:45;32.40;90.20
20125;DHT22;10223;50.862;4.360;2022-07-29T14:00:14;32.30;90.00
20125;DHT22;10223;50.862;4.360;2022-07-29T14:02:42;32.30;88.50
20125;DHT22;10223;50.862;4.360;2022-07-29T14:05:09;32.30;87.30
20125;DHT22;10223;50.862;4.360;2022-07-29T14:07:37;32.60;87.30
20125;DHT22;10223;50.862;4.360;2022-07-29T14:10:04;33.10;85.80
20125;DHT22;10223;50.862;4.360;2022-07-29T14:12:31;33.40;86.30
20125;DHT22;10223;50.862;4.360;2022-07-29T14:14:58;33.40;85.60
20125;DHT22;10223;50.862;4.360;2022-07-29T14:17:26;33.70;85.20
20125;DHT22;10223;50.862;4.360;2022-07-29T14:19:53;33.60;86.10
20125;DHT22;10223;50.862;4.360;2022-07-29T14:22:20;33.50;85.80
20125;DHT22;10223;50.862;4.360;2022-07-29T14:24:47;33.30;86.40
20125;DHT22;10223;50.862;4.360;2022-07-29T14:27:14;33.20;85.60
20125;DHT22;10223;50.862;4.360;2022-07-29T14:29:41;33.30;86.00
20125;DHT22;10223;50.862;4.360;2022-07-29T14:32:09;33.80;84.10
20125;DHT22;10223;50.862;4.360;2022-07-29T14:34:38;34.20;83.00
20125;DHT22;10223;50.862;4.360;2022-07-29T14:37:06;34.50;80.50
20125;DHT22;10223;50.862;4.360;2022-07-29T14:39:34;34.70;80.90
20125;DHT22;10223;50.862;4.360;2022-07-29T14:42:01;34.70;80.00
20125;DHT22;10223;50.862;4.360;2022-07-29T14:44:28;33.80;81.20
20125;DHT22;10223;50.862;4.360;2022-07-29T14:46:56;33.40;82.20
20125;DHT22;10223;50.862;4.360;2022-07-29T14:49:24;32.20;84.20
20125;DHT22;10223;50.862;4.360;2022-07-29T14:51:53;32.20;84.80
20125;DHT22;10223;50.862;4.360;2022-07-29T14:54:20;31.60;86.70
20125;DHT22;10223;50.862;4.360;2022-07-29T14:56:47;31.80;86.40
20125;DHT22;10223;50.862;4.360;2022-07-29T14:59:14;31.90;85.50
20125;DHT22;10223;50.862;4.360;2022-07-29T15:01:41;31.70;86.10
20125;DHT22;10223;50.862;4.360;2022-07-29T15:04:09;32.20;84.50
20125;DHT22;10223;50.862;4.360;2022-07-29T15:06:35;31.80;85.00
20125;DHT22;10223;50.862;4.360;2022-07-29T15:09:04;31.40;86.00
20125;DHT22;10223;50.862;4.360;2022-07-29T15:11:31;31.30;86.80
20125;DHT22;10223;50.862;4.360;2022-07-29T15:13:58;30.80;87.80
20125;DHT22;10223;50.862;4.360;2022-07-29T15:16:25;31.10;88.50
20125;DHT22;10223;50.862;4.360;2022-07-29T15:18:52;31.40;87.90
20125;DHT22;10223;50.862;4.360;2022-07-29T15:21:19;31.50;87.20
20125;DHT22;10223;50.862;4.360;2022-07-29T15:23:46;32.10;86.40
20125;DHT22;10223;50.862;4.360;2022-07-29T15:26:14;32.60;84.90
20125;DHT22;10223;50.862;4.360;2022-07-29T15:28:41;33.10;83.50
20125;DHT22;10223;50.862;4.360;2022-07-29T15:31:08;32.90;83.40
20125;DHT22;10223;50.862;4.360;2022-07-29T15:33:35;33.20;82.40
20125;DHT22;10223;50.862;4.360;2022-07-29T15:36:02;33.60;81.60
20125;DHT22;10223;50.862;4.360;2022-07-29T15:38:30;33.10;82.00
20125;DHT22;10223;50.862;4.360;2022-07-29T15:40:58;33.30;81.40
20125;DHT22;10223;50.862;4.360;2022-07-29T15:43:26;33.10;81.50
20125;DHT22;10223;50.862;4.360;2022-07-29T15:45:53;33.20;81.60
20125;DHT22;10223;50.862;4.360;2022-07-29T15:48:40;33.90;80.50